Time;durP1;ratioP1;P1;durP2;ratioP2;P2;SDS_P1;SDS_P2;PMS_P1;PMS_P2;Temp;Humidity;BMP_temperature;BMP_pressure;BME280_temperature;BME280_humidity;BME280_pressure;Samples;Min_cycle;Max_cycle;Signal;HPM_P1;HPM_P2
2022/06/06 00:02:29;;;;;;;;;;;16.30;99.90;;;;;;10204181;28;84161;-52
2022/06/06 00:07:29;;;;;;;;;;;16.30;99.90;;;;;;10244058;28;83314;-53
2022/06/06 00:12:30;;;;;;;;;;;16.30;99.90;;;;;;10243741;28;83591;-54
2022/06/06 00:17:31;;;;;;;;;;;16.30;99.90;;;;;;10243024;28;84090;-53
2022/06/06 00:22:31;;;;;;;;;;;16.30;99.90;;;;;;10242374;28;83212;-54
2022/06/06 00:27:32;;;;;;;;;;;16.40;99.90;;;;;;10243873;28;83343;-54
2022/06/06 00:37:52;;;;;;;;;;;16.40;99.90;;;;;;10223665;28;83293;-53
2022/06/06 00:42:52;;;;;;;;;;;16.30;99.90;;;;;;10202662;28;83323;-52
2022/06/06 00:47:55;;;;;;;;;;;16.40;99.90;;;;;;10203275;28;83491;-53
2022/06/06 00:52:56;;;;;;;;;;;16.40;99.90;;;;;;10211133;28;84077;-53
2022/06/06 00:58:00;;;;;;;;;;;16.40;99.90;;;;;;10242664;28;83895;-50
2022/06/06 01:03:02;;;;;;;;;;;16.40;99.90;;;;;;10242060;28;83692;-50
2022/06/06 01:08:03;;;;;;;;;;;16.50;99.90;;;;;;10241928;28;83890;-49
2022/06/06 01:13:05;;;;;;;;;;;16.40;99.90;;;;;;10204968;28;83619;-52
2022/06/06 01:18:12;;;;;;;;;;;16.50;99.90;;;;;;10200796;28;83363;-53
2022/06/06 01:23:15;;;;;;;;;;;16.40;99.90;;;;;;10201383;28;83313;-51
2022/06/06 01:28:20;;;;;;;;;;;16.50;99.90;;;;;;10207310;28;84075;-51
2022/06/06 01:33:20;;;;;;;;;;;16.20;99.90;;;;;;10208432;28;85068;-53
2022/06/06 01:38:23;;;;;;;;;;;16.10;99.90;;;;;;10248138;28;84045;-52
2022/06/06 01:43:30;;;;;;;;;;;16.00;99.90;;;;;;10248303;28;83344;-55
2022/06/06 01:48:33;;;;;;;;;;;15.90;99.90;;;;;;10247702;28;83989;-51
2022/06/06 01:53:35;;;;;;;;;;;15.80;99.90;;;;;;10247163;28;84135;-50
2022/06/06 01:58:36;;;;;;;;;;;15.80;99.90;;;;;;10247424;28;83985;-52
2022/06/06 02:03:37;;;;;;;;;;;15.80;99.90;;;;;;10247411;28;84174;-50
2022/06/06 02:08:37;;;;;;;;;;;15.70;99.90;;;;;;10207496;28;83735;-48
2022/06/06 02:13:38;;;;;;;;;;;15.70;99.90;;;;;;10206931;28;83812;-49
2022/06/06 02:18:38;;;;;;;;;;;15.70;99.90;;;;;;10215108;28;83863;-48
2022/06/06 02:23:39;;;;;;;;;;;15.70;99.90;;;;;;10246928;28;83742;-49
2022/06/06 02:28:40;;;;;;;;;;;15.70;99.90;;;;;;10245151;28;84261;-52
2022/06/06 02:33:41;;;;;;;;;;;15.60;99.90;;;;;;10226786;28;85952;-52
2022/06/06 02:38:41;;;;;;;;;;;15.60;99.90;;;;;;10229918;28;85507;-49
2022/06/06 02:43:43;;;;;;;;;;;15.70;99.90;;;;;;10278334;28;84192;-53
2022/06/06 02:48:43;;;;;;;;;;;15.70;99.90;;;;;;10258461;28;83407;-51
2022/06/06 02:53:44;;;;;;;;;;;15.70;99.90;;;;;;10256825;28;83994;-53
2022/06/06 02:58:44;;;;;;;;;;;15.60;99.90;;;;;;10244685;28;85339;-51
2022/06/06 03:03:45;;;;;;;;;;;15.60;99.90;;;;;;10239243;28;83811;-50
2022/06/06 03:08:54;;;;;;;;;;;15.60;99.90;;;;;;10246662;28;85356;-51
2022/06/06 03:13:57;;;;;;;;;;;15.70;99.90;;;;;;10255814;28;83372;-49
2022/06/06 03:24:51;;;;;;;;;;;15.60;99.90;;;;;;10264674;28;83513;-54
2022/06/06 03:30:07;;;;;;;;;;;15.60;99.90;;;;;;10262201;28;84020;-54
2022/06/06 03:35:11;;;;;;;;;;;15.60;99.90;;;;;;10260519;28;83541;-50
2022/06/06 03:40:17;;;;;;;;;;;15.50;99.90;;;;;;10284240;28;83829;-54
2022/06/06 03:45:20;;;;;;;;;;;15.60;99.90;;;;;;10253580;28;83403;-49
2022/06/06 03:50:27;;;;;;;;;;;15.50;99.90;;;;;;10251911;28;84163;-50
2022/06/06 03:55:46;;;;;;;;;;;15.40;99.90;;;;;;10205576;28;83738;-51
2022/06/06 04:00:47;;;;;;;;;;;15.30;99.90;;;;;;10205202;28;83195;-50
2022/06/06 04:05:48;;;;;;;;;;;15.20;99.90;;;;;;10230532;28;83827;-50
2022/06/06 04:10:54;;;;;;;;;;;15.20;99.90;;;;;;10242797;28;83746;-53
2022/06/06 04:16:00;;;;;;;;;;;15.10;99.90;;;;;;10272178;22;83528;-48
2022/06/06 04:21:09;;;;;;;;;;;15.20;99.90;;;;;;10284979;28;85210;-49
2022/06/06 04:26:16;;;;;;;;;;;15.20;99.90;;;;;;10286123;28;84165;-52
2022/06/06 04:31:22;;;;;;;;;;;15.20;99.90;;;;;;10286389;28;83957;-53
2022/06/06 04:36:25;;;;;;;;;;;15.30;99.90;;;;;;10268739;28;84060;-50
2022/06/06 04:41:29;;;;;;;;;;;15.30;99.90;;;;;;10245230;28;84138;-50
2022/06/06 04:46:29;;;;;;;;;;;15.30;99.90;;;;;;10263280;28;84109;-50
2022/06/06 04:51:31;;;;;;;;;;;15.40;99.90;;;;;;10285835;28;84138;-49
2022/06/06 04:56:32;;;;;;;;;;;15.40;99.90;;;;;;10285202;28;83863;-50
2022/06/06 05:01:33;;;;;;;;;;;15.40;99.90;;;;;;10262281;28;84203;-49
2022/06/06 05:06:57;;;;;;;;;;;15.40;99.90;;;;;;10251673;28;84256;-51
2022/06/06 05:12:00;;;;;;;;;;;15.40;99.90;;;;;;10243836;28;84021;-49
2022/06/06 05:17:09;;;;;;;;;;;15.50;99.90;;;;;;10251169;28;83966;-49
2022/06/06 05:22:16;;;;;;;;;;;15.50;99.90;;;;;;10270580;28;84549;-49
2022/06/06 05:27:35;;;;;;;;;;;15.60;99.90;;;;;;10298027;28;84132;-47
2022/06/06 05:32:38;;;;;;;;;;;15.60;99.90;;;;;;10275583;28;84175;-51
2022/06/06 05:37:47;;;;;;;;;;;15.70;99.90;;;;;;10289838;28;84116;-51
2022/06/06 05:42:47;;;;;;;;;;;15.80;99.90;;;;;;10291331;28;84217;-50
2022/06/06 05:47:51;;;;;;;;;;;15.80;99.90;;;;;;10291179;28;83678;-51
2022/06/06 05:53:00;;;;;;;;;;;16.00;99.90;;;;;;10283404;28;83746;-48
2022/06/06 05:58:27;;;;;;;;;;;16.20;99.90;;;;;;10290298;28;84947;-49
2022/06/06 06:03:35;;;;;;;;;;;16.30;99.90;;;;;;10290403;28;84031;-52
2022/06/06 06:08:35;;;;;;;;;;;16.40;99.90;;;;;;10290727;28;83898;-50
2022/06/06 06:13:40;;;;;;;;;;;16.40;99.90;;;;;;10289581;28;83989;-51
2022/06/06 06:18:46;;;;;;;;;;;16.60;99.90;;;;;;10284541;28;84161;-48
2022/06/06 06:23:50;;;;;;;;;;;16.70;99.90;;;;;;10287626;28;85104;-49
2022/06/06 06:28:51;;;;;;;;;;;16.80;99.90;;;;;;10287949;28;84020;-52
2022/06/06 06:34:01;;;;;;;;;;;17.00;99.90;;;;;;10268430;28;85894;-49
2022/06/06 06:39:09;;;;;;;;;;;17.20;99.90;;;;;;10269440;28;83826;-50
2022/06/06 06:44:13;;;;;;;;;;;17.10;99.90;;;;;;10274845;28;83859;-51
2022/06/06 06:49:17;;;;;;;;;;;17.30;92.00;;;;;;10282569;28;84116;-52
2022/06/06 06:54:17;;;;;;;;;;;17.60;1.00;;;;;;10279936;28;84890;-51
2022/06/06 06:59:37;;;;;;;;;;;17.40;1.00;;;;;;10274947;28;83465;-50
2022/06/06 07:10:49;;;;;;;;;;;17.90;1.00;;;;;;10284141;28;83391;-50
2022/06/06 07:15:54;;;;;;;;;;;18.00;1.00;;;;;;10253664;28;83970;-53
2022/06/06 07:20:54;;;;;;;;;;;18.30;1.00;;;;;;10275532;28;84551;-48
2022/06/06 07:25:56;;;;;;;;;;;18.20;1.00;;;;;;10273655;28;84256;-52
2022/06/06 07:30:56;;;;;;;;;;;18.50;1.00;;;;;;10262884;28;83300;-50
2022/06/06 07:36:07;;;;;;;;;;;18.60;99.90;;;;;;10266698;28;84102;-50
2022/06/06 07:41:20;;;;;;;;;;;19.30;99.90;;;;;;10267747;28;83803;-49
2022/06/06 07:46:29;;;;;;;;;;;19.80;1.00;;;;;;10254944;28;84286;-50
2022/06/06 07:51:45;;;;;;;;;;;19.70;1.00;;;;;;10256094;28;83891;-54
2022/06/06 07:56:54;;;;;;;;;;;20.30;99.90;;;;;;10264622;28;83474;-50
2022/06/06 08:02:34;;;;;;;;;;;20.90;1.00;;;;;;10257037;28;85242;-49
2022/06/06 08:07:37;;;;;;;;;;;20.90;1.00;;;;;;10137036;28;84094;-50
2022/06/06 08:12:40;;;;;;;;;;;21.20;1.00;;;;;;10253257;28;83986;-48
2022/06/06 08:17:55;;;;;;;;;;;22.20;99.90;;;;;;10284860;28;84544;-47
2022/06/06 08:22:58;;;;;;;;;;;21.80;99.90;;;;;;10282801;28;83912;-48
2022/06/06 08:27:59;;;;;;;;;;;21.60;99.90;;;;;;10284809;28;84514;-49
2022/06/06 08:32:59;;;;;;;;;;;21.90;99.90;;;;;;10285845;28;83832;-49
2022/06/06 08:38:09;;;;;;;;;;;22.20;99.90;;;;;;10290254;28;84201;-49
2022/06/06 08:43:17;;;;;;;;;;;22.30;1.00;;;;;;10287577;28;84282;-46
2022/06/06 08:48:38;;;;;;;;;;;22.50;1.00;;;;;;10289375;28;83887;-49
2022/06/06 08:54:06;;;;;;;;;;;22.60;1.00;;;;;;10290203;28;83892;-47
2022/06/06 08:59:12;;;;;;;;;;;22.80;1.00;;;;;;10289747;28;84026;-50
2022/06/06 09:04:31;;;;;;;;;;;23.70;99.90;;;;;;10289156;28;83812;-49
2022/06/06 09:09:50;;;;;;;;;;;23.20;1.00;;;;;;10286946;28;83621;-49
2022/06/06 09:15:11;;;;;;;;;;;23.10;1.00;;;;;;10287382;28;83602;-50
2022/06/06 09:20:27;;;;;;;;;;;23.00;1.00;;;;;;10288324;28;83913;-49
2022/06/06 09:25:35;;;;;;;;;;;22.90;99.90;;;;;;10289940;28;84338;-50
2022/06/06 09:31:03;;;;;;;;;;;22.90;1.00;;;;;;10287991;28;84185;-50
2022/06/06 09:36:19;;;;;;;;;;;22.70;1.00;;;;;;10291236;28;83815;-52
2022/06/06 09:41:22;;;;;;;;;;;22.00;1.00;;;;;;10291557;28;83441;-50
2022/06/06 09:46:23;;;;;;;;;;;21.10;1.00;;;;;;10254673;28;84044;-50
2022/06/06 09:51:27;;;;;;;;;;;20.60;1.00;;;;;;10271056;28;83852;-48
2022/06/06 10:02:19;;;;;;;;;;;23.10;1.00;;;;;;10290101;28;83719;-49
2022/06/06 10:07:38;;;;;;;;;;;24.20;1.00;;;;;;10278417;28;83644;-52
2022/06/06 10:12:57;;;;;;;;;;;25.80;1.00;;;;;;10285741;28;84909;-48
2022/06/06 10:18:06;;;;;;;;;;;26.30;99.90;;;;;;10298151;23;84220;-51
2022/06/06 10:23:10;;;;;;;;;;;26.40;99.90;;;;;;10282949;28;83429;-52
2022/06/06 10:28:22;;;;;;;;;;;25.50;99.90;;;;;;10274460;28;83385;-51
2022/06/06 10:33:35;;;;;;;;;;;24.00;99.90;;;;;;10285462;28;84405;-51
2022/06/06 10:38:44;;;;;;;;;;;24.70;99.90;;;;;;10283156;28;84188;-49
2022/06/06 10:44:02;;;;;;;;;;;24.10;99.90;;;;;;10272329;28;84273;-48
2022/06/06 10:49:06;;;;;;;;;;;24.30;99.90;;;;;;10287021;28;83842;-49
2022/06/06 10:54:18;;;;;;;;;;;24.80;99.90;;;;;;10269264;28;84186;-53
2022/06/06 10:59:19;;;;;;;;;;;26.00;99.90;;;;;;10247922;28;84172;-51
2022/06/06 11:04:25;;;;;;;;;;;26.20;1.00;;;;;;10246802;28;83732;-49
2022/06/06 11:09:35;;;;;;;;;;;26.20;1.00;;;;;;10258883;28;84149;-49
2022/06/06 11:14:44;;;;;;;;;;;26.50;1.00;;;;;;10258936;28;84124;-49
2022/06/06 11:19:44;;;;;;;;;;;27.00;1.00;;;;;;10247258;28;84320;-47
2022/06/06 11:24:52;;;;;;;;;;;27.10;1.00;;;;;;10247828;28;83709;-51
2022/06/06 11:30:06;;;;;;;;;;;26.40;1.00;;;;;;10286982;28;83286;-50
2022/06/06 11:35:09;;;;;;;;;;;27.80;1.00;;;;;;10287068;28;83778;-53
2022/06/06 11:40:26;;;;;;;;;;;26.90;1.00;;;;;;10287802;28;83256;-53
2022/06/06 11:45:30;;;;;;;;;;;26.20;1.00;;;;;;10286174;28;83430;-50
2022/06/06 11:50:42;;;;;;;;;;;24.60;1.00;;;;;;10285361;28;83745;-51
2022/06/06 11:55:58;;;;;;;;;;;23.10;1.00;;;;;;10287701;28;84089;-55
2022/06/06 12:01:18;;;;;;;;;;;22.40;65.40;;;;;;10287297;28;83476;-54
2022/06/06 12:06:37;;;;;;;;;;;21.90;99.90;;;;;;10261795;28;83944;-51
2022/06/06 12:11:56;;;;;;;;;;;20.90;1.00;;;;;;10279469;28;83287;-56
2022/06/06 12:16:59;;;;;;;;;;;19.80;1.00;;;;;;10284892;28;84106;-50
2022/06/06 12:22:06;;;;;;;;;;;19.20;1.00;;;;;;10266810;28;83790;-52
2022/06/06 12:27:07;;;;;;;;;;;20.00;1.00;;;;;;10246299;28;84043;-55
2022/06/06 12:32:22;;;;;;;;;;;22.20;1.00;;;;;;10247328;28;84183;-49
2022/06/06 12:37:32;;;;;;;;;;;24.10;1.00;;;;;;10245440;28;83727;-50
2022/06/06 12:42:58;;;;;;;;;;;24.10;99.90;;;;;;10246217;28;84102;-49
2022/06/06 12:48:06;;;;;;;;;;;23.10;99.90;;;;;;10252040;28;84091;-50
2022/06/06 12:53:07;;;;;;;;;;;24.40;99.90;;;;;;10287221;28;83851;-50
2022/06/06 12:58:22;;;;;;;;;;;25.40;99.90;;;;;;10287281;28;84265;-50
2022/06/06 13:03:25;;;;;;;;;;;25.10;99.90;;;;;;10268281;28;83639;-52
2022/06/06 13:08:31;;;;;;;;;;;25.50;91.60;;;;;;10245603;28;84036;-50
2022/06/06 13:13:50;;;;;;;;;;;24.40;43.80;;;;;;10245060;28;83881;-50
2022/06/06 13:19:05;;;;;;;;;;;24.20;99.90;;;;;;10245550;28;83812;-48
2022/06/06 13:24:30;;;;;;;;;;;24.10;99.90;;;;;;10251397;28;83944;-52
2022/06/06 13:29:35;;;;;;;;;;;25.10;6.30;;;;;;10250345;28;85996;-50
2022/06/06 13:34:48;;;;;;;;;;;26.40;1.00;;;;;;10251652;28;84092;-50
2022/06/06 13:40:08;;;;;;;;;;;26.60;1.00;;;;;;10253321;28;84241;-49
2022/06/06 13:45:20;;;;;;;;;;;26.00;1.00;;;;;;10263116;28;85110;-51
2022/06/06 13:50:24;;;;;;;;;;;26.50;1.00;;;;;;10272519;28;83450;-51
2022/06/06 13:55:30;;;;;;;;;;;26.20;1.00;;;;;;10287327;28;83547;-54
2022/06/06 14:00:38;;;;;;;;;;;26.30;1.00;;;;;;10279919;28;83632;-53
2022/06/06 14:05:50;;;;;;;;;;;26.20;1.00;;;;;;10281005;28;84219;-53
2022/06/06 14:10:51;;;;;;;;;;;24.60;25.20;;;;;;10289303;28;84177;-54
2022/06/06 14:15:52;;;;;;;;;;;24.30;99.90;;;;;;10289534;28;83915;-52
2022/06/06 14:20:56;;;;;;;;;;;23.60;99.90;;;;;;10285436;28;84115;-55
2022/06/06 14:25:56;;;;;;;;;;;23.60;99.90;;;;;;10276582;28;84112;-54
2022/06/06 14:30:57;;;;;;;;;;;22.90;1.00;;;;;;10289707;28;84160;-58
2022/06/06 14:36:14;;;;;;;;;;;22.20;1.00;;;;;;10290549;28;83836;-62
2022/06/06 14:41:15;;;;;;;;;;;21.90;1.00;;;;;;10290552;28;84164;-59
2022/06/06 14:46:17;;;;;;;;;;;21.80;1.00;;;;;;10280584;28;84184;-56
2022/06/06 14:51:18;;;;;;;;;;;21.80;1.00;;;;;;10271548;28;83991;-51
2022/06/06 14:56:18;;;;;;;;;;;22.20;99.90;;;;;;10269041;28;86238;-54
2022/06/06 15:01:20;;;;;;;;;;;22.50;99.90;;;;;;10271687;28;83979;-59
2022/06/06 15:06:24;;;;;;;;;;;22.80;99.90;;;;;;10272782;28;84427;-60
2022/06/06 15:11:26;;;;;;;;;;;22.50;99.90;;;;;;10273702;28;83994;-63
2022/06/06 15:16:29;;;;;;;;;;;21.90;99.90;;;;;;10268830;28;83908;-57
2022/06/06 15:21:38;;;;;;;;;;;22.00;1.00;;;;;;10267643;28;84533;-56
2022/06/06 15:26:48;;;;;;;;;;;22.30;99.90;;;;;;10267871;28;84153;-62
2022/06/06 15:31:55;;;;;;;;;;;22.50;99.90;;;;;;10266694;28;84196;-60
2022/06/06 15:37:01;;;;;;;;;;;22.40;99.90;;;;;;10266424;28;83596;-57
2022/06/06 15:42:15;;;;;;;;;;;22.20;99.90;;;;;;10271350;28;84262;-61
2022/06/06 15:47:32;;;;;;;;;;;22.30;99.90;;;;;;10281901;28;83987;-65
2022/06/06 15:52:51;;;;;;;;;;;22.20;99.90;;;;;;10279001;28;84490;-59
2022/06/06 15:57:52;;;;;;;;;;;22.10;99.90;;;;;;10281825;28;83509;-62
2022/06/06 16:02:55;;;;;;;;;;;21.80;99.90;;;;;;10284441;28;83426;-61
2022/06/06 16:08:05;;;;;;;;;;;21.90;1.00;;;;;;10275166;28;84343;-58
2022/06/06 16:13:25;;;;;;;;;;;22.00;1.00;;;;;;10282837;28;85542;-61
2022/06/06 16:18:26;;;;;;;;;;;22.00;1.00;;;;;;10283821;28;83666;-63
2022/06/06 16:23:31;;;;;;;;;;;22.20;1.00;;;;;;10285375;28;84171;-62
2022/06/06 16:28:34;;;;;;;;;;;21.90;1.00;;;;;;10265202;28;83387;-60
2022/06/06 16:33:36;;;;;;;;;;;21.70;1.00;;;;;;10285960;28;84231;-63
2022/06/06 16:38:44;;;;;;;;;;;21.60;1.00;;;;;;10282734;28;83342;-60
2022/06/06 16:49:32;;;;;;;;;;;21.20;1.00;;;;;;10282476;28;85169;-62
2022/06/06 16:54:50;;;;;;;;;;;21.10;1.00;;;;;;10292652;28;87141;-62
2022/06/06 16:59:58;;;;;;;;;;;20.90;1.00;;;;;;10290544;28;85859;-62
2022/06/06 17:05:22;;;;;;;;;;;20.70;1.00;;;;;;10288357;28;84129;-58
2022/06/06 17:10:38;;;;;;;;;;;20.70;99.90;;;;;;10287034;28;84131;-59
2022/06/06 17:15:41;;;;;;;;;;;20.60;1.00;;;;;;10290376;28;83481;-58
2022/06/06 17:20:42;;;;;;;;;;;20.40;14.30;;;;;;10290345;28;84895;-63
2022/06/06 17:25:43;;;;;;;;;;;20.30;1.00;;;;;;10291810;28;83999;-59
2022/06/06 17:31:04;;;;;;;;;;;20.20;8.10;;;;;;10289678;28;84565;-62
2022/06/06 17:36:23;;;;;;;;;;;20.10;1.00;;;;;;10284368;28;84314;-62
2022/06/06 17:41:26;;;;;;;;;;;20.00;1.00;;;;;;10290561;28;83503;-61
2022/06/06 17:46:27;;;;;;;;;;;19.90;99.90;;;;;;10293499;28;83921;-61
2022/06/06 17:51:37;;;;;;;;;;;19.90;99.90;;;;;;10289465;28;83209;-61
2022/06/06 17:56:38;;;;;;;;;;;19.80;1.00;;;;;;10306023;23;83347;-60
2022/06/06 18:01:45;;;;;;;;;;;19.70;1.00;;;;;;10284437;28;83510;-49
2022/06/06 18:07:15;;;;;;;;;;;19.50;99.90;;;;;;10282278;28;84562;-51
2022/06/06 18:12:21;;;;;;;;;;;19.30;1.00;;;;;;10228225;28;83398;-47
2022/06/06 18:17:28;;;;;;;;;;;19.10;1.00;;;;;;10238936;28;85323;-55
2022/06/06 18:22:31;;;;;;;;;;;19.10;99.90;;;;;;10253488;28;84436;-53
2022/06/06 18:27:38;;;;;;;;;;;18.90;77.90;;;;;;10271359;28;83472;-50
2022/06/06 18:32:42;;;;;;;;;;;18.60;1.00;;;;;;10270869;28;83931;-53
2022/06/06 18:37:47;;;;;;;;;;;18.40;1.00;;;;;;10273009;28;83551;-49
2022/06/06 18:42:49;;;;;;;;;;;18.20;76.00;;;;;;10237755;28;83973;-51
2022/06/06 18:47:51;;;;;;;;;;;18.10;99.90;;;;;;10243926;28;83527;-47
2022/06/06 18:53:03;;;;;;;;;;;18.00;24.40;;;;;;10250476;28;83778;-48
2022/06/06 18:58:16;;;;;;;;;;;18.00;99.90;;;;;;10241462;28;84145;-50
2022/06/06 19:03:22;;;;;;;;;;;18.00;1.00;;;;;;10251123;28;84052;-49
2022/06/06 19:08:23;;;;;;;;;;;18.00;1.00;;;;;;10231669;28;85117;-53
2022/06/06 19:13:29;;;;;;;;;;;17.80;99.90;;;;;;10248220;28;83384;-51
2022/06/06 19:18:30;;;;;;;;;;;17.20;1.00;;;;;;10239595;28;83459;-49
2022/06/06 19:23:55;;;;;;;;;;;16.30;1.00;;;;;;10239407;28;84467;-59
2022/06/06 19:28:58;;;;;;;;;;;15.70;1.00;;;;;;10241907;28;83567;-57
2022/06/06 19:34:08;;;;;;;;;;;15.30;18.50;;;;;;10249072;28;83274;-59
2022/06/06 19:39:34;;;;;;;;;;;14.80;99.90;;;;;;10250303;28;83823;-57
2022/06/06 19:44:36;;;;;;;;;;;14.70;99.90;;;;;;10251886;28;83413;-57
2022/06/06 19:49:40;;;;;;;;;;;14.50;99.90;;;;;;10241495;28;83707;-60
2022/06/06 19:54:41;;;;;;;;;;;14.40;99.90;;;;;;10242425;28;83414;-48
2022/06/06 19:59:45;;;;;;;;;;;14.30;99.90;;;;;;10243624;28;84188;-47
2022/06/06 20:04:47;;;;;;;;;;;14.20;99.90;;;;;;10246580;28;83967;-48
2022/06/06 20:09:55;;;;;;;;;;;14.30;99.90;;;;;;10245344;28;83908;-49
2022/06/06 20:14:58;;;;;;;;;;;14.30;99.90;;;;;;10244884;28;84200;-48
2022/06/06 20:20:25;;;;;;;;;;;14.30;99.90;;;;;;10242260;28;84107;-47
2022/06/06 20:25:34;;;;;;;;;;;14.30;99.90;;;;;;10210339;28;84958;-49
2022/06/06 20:36:16;;;;;;;;;;;14.30;99.90;;;;;;10241343;28;84993;-49
2022/06/06 20:41:17;;;;;;;;;;;14.20;99.90;;;;;;10249291;28;85498;-50
2022/06/06 20:46:24;;;;;;;;;;;14.30;99.90;;;;;;10250483;28;83902;-47
2022/06/06 20:51:29;;;;;;;;;;;14.20;99.90;;;;;;10250360;28;83736;-50
2022/06/06 20:56:33;;;;;;;;;;;14.20;99.90;;;;;;10216764;28;83742;-50
2022/06/06 21:01:34;;;;;;;;;;;14.10;69.70;;;;;;10210366;28;83913;-49
2022/06/06 21:06:35;;;;;;;;;;;14.10;44.50;;;;;;10210946;28;83810;-48
2022/06/06 21:11:37;;;;;;;;;;;14.20;55.20;;;;;;10211533;28;83873;-49
2022/06/06 21:16:38;;;;;;;;;;;14.30;9.10;;;;;;10208801;28;84076;-48
2022/06/06 21:21:40;;;;;;;;;;;14.20;1.00;;;;;;10209387;28;83778;-51
2022/06/06 21:26:41;;;;;;;;;;;14.30;10.80;;;;;;10210167;28;84162;-48
2022/06/06 21:31:42;;;;;;;;;;;14.30;1.00;;;;;;10209159;28;83707;-49
2022/06/06 21:36:43;;;;;;;;;;;14.30;7.10;;;;;;10207705;28;87818;-49
2022/06/06 21:41:44;;;;;;;;;;;14.10;5.60;;;;;;10227662;28;83901;-52
2022/06/06 21:46:44;;;;;;;;;;;14.10;26.20;;;;;;10249202;28;83404;-48
2022/06/06 21:51:45;;;;;;;;;;;14.10;41.30;;;;;;10248349;28;83987;-48
2022/06/06 21:56:47;;;;;;;;;;;14.10;39.40;;;;;;10249246;28;83737;-51
2022/06/06 22:01:49;;;;;;;;;;;14.10;17.30;;;;;;10249820;28;83248;-48
2022/06/06 22:06:49;;;;;;;;;;;14.10;5.60;;;;;;10224351;28;84187;-49
2022/06/06 22:11:52;;;;;;;;;;;14.10;7.30;;;;;;10208629;28;84040;-48
2022/06/06 22:16:52;;;;;;;;;;;14.10;6.40;;;;;;10209231;28;83988;-49
2022/06/06 22:21:53;;;;;;;;;;;14.10;1.00;;;;;;10210644;28;83979;-46
2022/06/06 22:26:53;;;;;;;;;;;14.00;1.00;;;;;;10208816;28;84123;-49
2022/06/06 22:31:54;;;;;;;;;;;14.00;1.00;;;;;;10209282;28;84295;-47
2022/06/06 22:36:55;;;;;;;;;;;13.90;1.00;;;;;;10209369;28;83826;-46
2022/06/06 22:41:56;;;;;;;;;;;13.80;1.00;;;;;;10208713;28;84085;-49
2022/06/06 22:46:57;;;;;;;;;;;13.90;1.00;;;;;;10208729;28;83668;-47
2022/06/06 22:51:58;;;;;;;;;;;13.90;1.00;;;;;;10208077;28;84170;-46
2022/06/06 22:56:58;;;;;;;;;;;14.00;1.00;;;;;;10209908;28;83989;-50
2022/06/06 23:01:59;;;;;;;;;;;14.00;1.00;;;;;;10206590;28;84196;-48
2022/06/06 23:07:00;;;;;;;;;;;14.00;1.00;;;;;;10207592;28;84161;-49
2022/06/06 23:12:00;;;;;;;;;;;13.90;7.10;;;;;;10232458;28;83747;-51
2022/06/06 23:17:01;;;;;;;;;;;13.90;10.90;;;;;;10246689;28;83397;-46
2022/06/06 23:22:02;;;;;;;;;;;13.90;18.80;;;;;;10256625;28;84015;-50
2022/06/06 23:27:02;;;;;;;;;;;13.90;37.60;;;;;;10257858;28;84924;-51
2022/06/06 23:32:03;;;;;;;;;;;13.80;96.60;;;;;;10263162;28;84199;-49
2022/06/06 23:37:07;;;;;;;;;;;13.70;99.90;;;;;;10247934;28;84150;-48
2022/06/06 23:42:10;;;;;;;;;;;13.70;99.90;;;;;;10245907;28;84022;-48
2022/06/06 23:52:32;;;;;;;;;;;13.70;99.90;;;;;;10258725;28;83603;-49
2022/06/06 23:57:32;;;;;;;;;;;13.70;99.90;;;;;;10293312;22;84851;-56
